Nuevo Hermanos Rabal — EA4622 — position and weather

sailwx.info

Track history (hours):
 
Tides and Currents Weather Stations Pressure Air Temp Water Temp Dewpoint Dewpoint Depression Visibility Wind Speed Wind Dir Waves Ship Positions

Nuevo Hermanos Rabal

Last reported at 2017-Oct-04 03:19 UTC. Time now 2017-Oct-19 02:17 UTC.
Position N 37°40' W 000°30'.
Warning: this ship's position is 14 days out of date.

Length 22 m; draft 3 m.

Type: Fishing. MMSI: 224215230.

Date/timePositionNaut miles runAvg speedWind from/ knotsBaromVisibWave heightAir tempDewpointWater temp
2017-Oct-04 03:19N 37°40' W 000°30'1210.4
2017-Oct-04 02:09N 37°33' W 000°42'3 8.6
2017-Oct-04 01:50N 37°31' W 000°45'2 7.4
2017-Oct-04 01:30N 37°32' W 000°48'1 1.8
2017-Oct-04 00:57N 37°32' W 000°48'3 7.5
2017-Oct-04 00:30N 37°34' W 000°44'5 9.6
2017-Oct-03 23:59N 37°36' W 000°39'510.3
2017-Oct-03 23:29N 37°38' W 000°32'5 9.7
2017-Oct-03 23:01N 37°41' W 000°28'12 7.7
2017-Oct-03 21:29N 37°52' W 000°31'510.2
2017-Oct-03 21:01N 37°55' W 000°36'510.1
2017-Oct-03 20:31N 37°58' W 000°41'1 1.0
2017-Oct-03 20:00N 37°58' W 000°41'0 0.0
2017-Oct-03 19:30N 37°58' W 000°41'0 0.0
2017-Oct-03 19:00N 37°58' W 000°41'0 0.0
2017-Oct-03 18:30N 37°58' W 000°41'0 0.0
2017-Oct-03 18:00N 37°58' W 000°41'0 0.0
2017-Oct-03 17:30N 37°58' W 000°41'0 0.0
2017-Oct-03 17:00N 37°58' W 000°41'0 0.0
2017-Oct-03 16:30N 37°58' W 000°41'0 0.0
2017-Oct-03 16:00N 37°58' W 000°41'0 0.0
2017-Oct-03 15:31N 37°58' W 000°41'0 0.0
2017-Oct-03 15:01N 37°58' W 000°41'0 0.0
2017-Oct-03 14:00N 37°58' W 000°41'0 0.0
2017-Oct-03 13:30N 37°58' W 000°41'0 0.0
2017-Oct-03 13:01N 37°58' W 000°41'0 0.0
2017-Oct-03 12:30N 37°58' W 000°41'0 0.0
2017-Oct-03 12:00N 37°58' W 000°41'0 0.0
2017-Oct-03 11:30N 37°58' W 000°41'0 0.0
2017-Oct-03 11:00N 37°58' W 000°41'0 0.0
2017-Oct-03 10:31N 37°58' W 000°41'0 0.0
2017-Oct-03 10:00N 37°58' W 000°41'0 0.0
2017-Oct-03 09:31N 37°58' W 000°41'0 0.0
2017-Oct-03 09:00N 37°58' W 000°41'0 0.0
2017-Oct-03 08:30N 37°58' W 000°41'0 0.0
2017-Oct-03 08:01N 37°58' W 000°41'0 0.1
2017-Oct-03 07:30N 37°58' W 000°41'0 0.8
2017-Oct-03 07:00N 37°58' W 000°41'2 4.5
2017-Oct-03 06:31N 37°56' W 000°40'510.9
2017-Oct-03 06:00N 37°52' W 000°35'12 8.9
2017-Oct-03 04:42N 37°44' W 000°25'0 0.4
2017-Oct-03 03:57N 37°44' W 000°25'0 0.2
2017-Oct-03 03:19N 37°44' W 000°25'1 1.8
2017-Oct-03 02:54N 37°44' W 000°26'0 0.6
2017-Oct-03 02:06N 37°45' W 000°26'1 4.1
2017-Oct-03 01:56N 37°44' W 000°27'0 0.1
2017-Oct-03 01:28N 37°44' W 000°27'8 6.1
2017-Oct-03 00:06N 37°40' W 000°36'1 7.2
2017-Oct-03 00:01N 37°40' W 000°36'5 9.0
2017-Oct-02 23:31N 37°45' W 000°36'3 5.1
2017-Oct-02 23:00N 37°47' W 000°38'0 0.1
2017-Oct-02 22:31N 37°47' W 000°38'0 0.2
2017-Oct-02 21:54N 37°47' W 000°38'0 0.3
2017-Oct-02 21:31N 37°47' W 000°37'2 3.3
2017-Oct-02 20:56N 37°49' W 000°36'3 6.6
2017-Oct-02 20:30N 37°51' W 000°37'5 9.5
2017-Oct-02 20:01N 37°56' W 000°39'3 5.5
2017-Oct-02 19:30N 37°58' W 000°41'0 0.0
2017-Oct-02 19:01N 37°58' W 000°41'0 0.0
2017-Oct-02 18:30N 37°58' W 000°41'0 0.0
2017-Oct-02 18:00N 37°58' W 000°41'0 0.0
2017-Oct-02 17:30N 37°58' W 000°41'0 0.0
2017-Oct-02 17:00N 37°58' W 000°41'0 0.0
2017-Oct-02 16:31N 37°58' W 000°41'0 0.0
2017-Oct-02 16:01N 37°58' W 000°41'0 0.0
2017-Oct-02 15:30N 37°58' W 000°41'0 0.0
2017-Oct-02 15:01N 37°58' W 000°41'0 0.0
2017-Oct-02 14:30N 37°58' W 000°41'0 0.0
2017-Oct-02 14:01N 37°58' W 000°41'0 0.0
2017-Oct-02 13:30N 37°58' W 000°41'0 0.0
2017-Oct-02 13:01N 37°58' W 000°41'0 0.0
2017-Oct-02 12:30N 37°58' W 000°41'0 0.0
2017-Oct-02 12:01N 37°58' W 000°41'0 0.0
2017-Oct-02 11:30N 37°58' W 000°41'0 0.0
2017-Oct-02 11:01N 37°58' W 000°41'0 0.0
2017-Oct-02 10:31N 37°58' W 000°41'0 0.0
2017-Oct-02 10:00N 37°58' W 000°41'0 0.0
2017-Oct-02 09:30N 37°58' W 000°41'0 0.0
2017-Oct-02 09:01N 37°58' W 000°41'0 0.0
2017-Oct-02 08:30N 37°58' W 000°41'0 0.0
2017-Oct-02 08:00N 37°58' W 000°41'0 0.0
2017-Oct-02 07:30N 37°58' W 000°41'0 0.0
2017-Oct-02 07:00N 37°58' W 000°41'0 0.1
2017-Oct-02 06:30N 37°58' W 000°41'2 5.0
2017-Oct-02 06:01N 37°56' W 000°39'510.6
2017-Oct-02 05:31N 37°52' W 000°35'10 5.3
2017-Oct-02 03:33N 37°44' W 000°27'110.5
2017-Oct-02 03:30N 37°45' W 000°27'0 0.2
2017-Oct-02 02:59N 37°45' W 000°27'1 1.3
2017-Oct-02 02:26N 37°45' W 000°28'0 0.3
2017-Oct-02 01:58N 37°45' W 000°28'5 7.2
2017-Oct-02 01:16N 37°45' W 000°34'2 8.3
2017-Oct-02 01:00N 37°45' W 000°37'1 1.5
2017-Oct-02 00:31N 37°46' W 000°37'1 2.6
2017-Oct-02 00:01N 37°47' W 000°38'0 0.3
2017-Oct-01 23:31N 37°47' W 000°38'0 0.1
2017-Oct-01 23:00N 37°47' W 000°38'0 0.1
2017-Oct-01 22:31N 37°47' W 000°38'4 8.6
2017-Oct-01 22:00N 37°51' W 000°36'5 9.5
2017-Oct-01 21:31N 37°56' W 000°38'4 7.1
2017-Oct-01 21:00N 37°58' W 000°41'  
2017-Sep-29 06:45N 37°58' W 000°41'2 7.1
2017-Sep-29 06:29N 37°58' W 000°39'510.5
2017-Sep-29 06:00N 38°01' W 000°33'5 1.4
2017-Sep-29 02:11N 37°55' W 000°33'210.1
2017-Sep-29 02:00N 37°55' W 000°35'5 9.2
2017-Sep-29 01:28N 37°50' W 000°36'3 6.6
2017-Sep-29 01:00N 37°47' W 000°36'2 4.7
2017-Sep-29 00:30N 37°45' W 000°38'510.2
2017-Sep-29 00:00N 37°48' W 000°43'2 4.6
2017-Sep-28 23:30N 37°49' W 000°45'0 0.0
2017-Sep-28 23:00N 37°49' W 000°45'0 0.0
2017-Sep-28 22:30N 37°49' W 000°45'0 0.0
2017-Sep-28 21:33N 37°49' W 000°45'0 0.0
2017-Sep-28 21:30N 37°49' W 000°45'0 0.0
2017-Sep-28 21:00N 37°49' W 000°45'0 0.0
2017-Sep-28 20:30N 37°49' W 000°45'0 0.0
2017-Sep-28 20:00N 37°49' W 000°45'0 0.0
2017-Sep-28 19:30N 37°49' W 000°45'0 0.0
2017-Sep-28 19:00N 37°49' W 000°45'0 0.0
2017-Sep-28 18:30N 37°49' W 000°45'0 0.0
2017-Sep-28 18:00N 37°49' W 000°45'0 0.0
2017-Sep-28 17:30N 37°49' W 000°45'0 0.0
2017-Sep-28 17:00N 37°49' W 000°45'0 0.0
2017-Sep-28 16:30N 37°49' W 000°45'0 0.0
2017-Sep-28 16:00N 37°49' W 000°45'0 0.0
2017-Sep-28 15:30N 37°49' W 000°45'0 0.0
2017-Sep-28 15:00N 37°49' W 000°45'0 0.0
2017-Sep-28 14:30N 37°49' W 000°45'0 0.0
2017-Sep-28 14:00N 37°49' W 000°45'0 0.0
2017-Sep-28 13:30N 37°49' W 000°45'0 0.0
2017-Sep-28 13:00N 37°49' W 000°45'0 0.0
2017-Sep-28 12:30N 37°49' W 000°45'0 0.0
2017-Sep-28 12:00N 37°49' W 000°45'0 0.0
2017-Sep-28 11:30N 37°49' W 000°45'0 0.0
2017-Sep-28 11:00N 37°49' W 000°45'0 0.0
2017-Sep-28 10:30N 37°49' W 000°45'0 0.0
2017-Sep-28 09:58N 37°49' W 000°45'0 0.1
2017-Sep-28 09:30N 37°49' W 000°45'0 0.0
2017-Sep-28 09:00N 37°49' W 000°45'0 0.0
2017-Sep-28 08:30N 37°49' W 000°45'0 0.0
2017-Sep-28 08:00N 37°49' W 000°45'0 0.0
2017-Sep-28 07:30N 37°49' W 000°45'0 0.0
2017-Sep-28 07:00N 37°49' W 000°45'0 0.0
2017-Sep-28 06:30N 37°49' W 000°45'0 0.0
2017-Sep-28 06:00N 37°49' W 000°45'0 0.0
2017-Sep-28 05:30N 37°49' W 000°45'0 0.0
2017-Sep-28 05:00N 37°49' W 000°45'0 0.0
2017-Sep-28 04:30N 37°49' W 000°45'1 2.6
2017-Sep-28 04:00N 37°48' W 000°44'4 8.5
2017-Sep-28 03:30N 37°46' W 000°39'4 8.9
2017-Sep-28 03:00N 37°42' W 000°40'8 9.1
2017-Sep-28 02:07N 37°35' W 000°45'1 9.7
2017-Sep-28 02:00N 37°34' W 000°46'2 1.3
2017-Sep-28 00:06N 37°33' W 000°49'0 1.6
2017-Sep-27 23:55N 37°32' W 000°48'0 0.4
2017-Sep-27 23:30N 37°33' W 000°49'0 0.5
2017-Sep-27 23:00N 37°33' W 000°48'0 0.5
2017-Sep-27 22:30N 37°33' W 000°48'37 8.4
2017-Sep-27 18:02N 37°24' W 001°34'0 9.4
2017-Sep-27 18:00N 37°24' W 001°34'0 0.0
2017-Sep-27 06:52N 37°24' W 001°35'0 0.2
2017-Sep-27 06:30N 37°24' W 001°35'0 0.1
2017-Sep-27 06:00N 37°24' W 001°35'0 0.0
2017-Sep-27 05:30N 37°24' W 001°35'0 0.0
2017-Sep-27 05:00N 37°24' W 001°35'0 0.0
2017-Sep-27 04:30N 37°24' W 001°35'0 0.0
2017-Sep-27 04:00N 37°24' W 001°35'0 0.0
2017-Sep-27 03:30N 37°24' W 001°35'0 0.0
2017-Sep-27 03:00N 37°24' W 001°35'0 0.0
2017-Sep-27 02:30N 37°24' W 001°35'0 0.0
2017-Sep-27 02:00N 37°24' W 001°35'0 0.0
2017-Sep-27 01:30N 37°24' W 001°35'0 0.0
2017-Sep-27 01:00N 37°24' W 001°35'0 0.0
2017-Sep-27 00:30N 37°24' W 001°35'0 0.5
2017-Sep-27 00:00N 37°24' W 001°34'0 0.2
2017-Sep-26 22:16N 37°24' W 001°34'0 1.4
2017-Sep-26 22:00N 37°24' W 001°35'0 0.0
2017-Sep-26 06:30N 37°24' W 001°35'0 0.0
2017-Sep-26 06:00N 37°24' W 001°35'0 0.1
2017-Sep-26 05:30N 37°24' W 001°35'1 0.0
2017-Sep-24 20:22N 37°23' W 001°35'1 2.7
2017-Sep-24 20:00N 37°24' W 001°35'  
Track history (hours):
 
Tides and Currents Weather Stations Pressure Air Temp Water Temp Dewpoint Dewpoint Depression Visibility Wind Speed Wind Dir Waves Ship Positions

Nuevo Hermanos Rabal

Last reported at 2017-Oct-04 03:19 UTC. Time now 2017-Oct-19 02:17 UTC.
Position N 37°40' W 000°30'.
Warning: this ship's position is 14 days out of date.

Length 22 m; draft 3 m.

Type: Fishing. MMSI: 224215230.

Date/timePositionNaut miles runAvg speedWind from/ knotsBaromVisibWave heightAir tempDewpointWater temp
2017-Oct-04 03:19N 37°40' W 000°30'1210.4
2017-Oct-04 02:09N 37°33' W 000°42'3 8.6
2017-Oct-04 01:50N 37°31' W 000°45'2 7.4
2017-Oct-04 01:30N 37°32' W 000°48'1 1.8
2017-Oct-04 00:57N 37°32' W 000°48'3 7.5
2017-Oct-04 00:30N 37°34' W 000°44'5 9.6
2017-Oct-03 23:59N 37°36' W 000°39'510.3
2017-Oct-03 23:29N 37°38' W 000°32'5 9.7
2017-Oct-03 23:01N 37°41' W 000°28'12 7.7
2017-Oct-03 21:29N 37°52' W 000°31'510.2
2017-Oct-03 21:01N 37°55' W 000°36'510.1
2017-Oct-03 20:31N 37°58' W 000°41'1 1.0
2017-Oct-03 20:00N 37°58' W 000°41'0 0.0
2017-Oct-03 19:30N 37°58' W 000°41'0 0.0
2017-Oct-03 19:00N 37°58' W 000°41'0 0.0
2017-Oct-03 18:30N 37°58' W 000°41'0 0.0
2017-Oct-03 18:00N 37°58' W 000°41'0 0.0
2017-Oct-03 17:30N 37°58' W 000°41'0 0.0
2017-Oct-03 17:00N 37°58' W 000°41'0 0.0
2017-Oct-03 16:30N 37°58' W 000°41'0 0.0
2017-Oct-03 16:00N 37°58' W 000°41'0 0.0
2017-Oct-03 15:31N 37°58' W 000°41'0 0.0
2017-Oct-03 15:01N 37°58' W 000°41'0 0.0
2017-Oct-03 14:00N 37°58' W 000°41'0 0.0
2017-Oct-03 13:30N 37°58' W 000°41'0 0.0
2017-Oct-03 13:01N 37°58' W 000°41'0 0.0
2017-Oct-03 12:30N 37°58' W 000°41'0 0.0
2017-Oct-03 12:00N 37°58' W 000°41'0 0.0
2017-Oct-03 11:30N 37°58' W 000°41'0 0.0
2017-Oct-03 11:00N 37°58' W 000°41'0 0.0
2017-Oct-03 10:31N 37°58' W 000°41'0 0.0
2017-Oct-03 10:00N 37°58' W 000°41'0 0.0
2017-Oct-03 09:31N 37°58' W 000°41'0 0.0
2017-Oct-03 09:00N 37°58' W 000°41'0 0.0
2017-Oct-03 08:30N 37°58' W 000°41'0 0.0
2017-Oct-03 08:01N 37°58' W 000°41'0 0.1
2017-Oct-03 07:30N 37°58' W 000°41'0 0.8
2017-Oct-03 07:00N 37°58' W 000°41'2 4.5
2017-Oct-03 06:31N 37°56' W 000°40'510.9
2017-Oct-03 06:00N 37°52' W 000°35'12 8.9
2017-Oct-03 04:42N 37°44' W 000°25'0 0.4
2017-Oct-03 03:57N 37°44' W 000°25'0 0.2
2017-Oct-03 03:19N 37°44' W 000°25'1 1.8
2017-Oct-03 02:54N 37°44' W 000°26'0 0.6
2017-Oct-03 02:06N 37°45' W 000°26'1 4.1
2017-Oct-03 01:56N 37°44' W 000°27'0 0.1
2017-Oct-03 01:28N 37°44' W 000°27'8 6.1
2017-Oct-03 00:06N 37°40' W 000°36'1 7.2
2017-Oct-03 00:01N 37°40' W 000°36'5 9.0
2017-Oct-02 23:31N 37°45' W 000°36'3 5.1
2017-Oct-02 23:00N 37°47' W 000°38'0 0.1
2017-Oct-02 22:31N 37°47' W 000°38'0 0.2
2017-Oct-02 21:54N 37°47' W 000°38'0 0.3
2017-Oct-02 21:31N 37°47' W 000°37'2 3.3
2017-Oct-02 20:56N 37°49' W 000°36'3 6.6
2017-Oct-02 20:30N 37°51' W 000°37'5 9.5
2017-Oct-02 20:01N 37°56' W 000°39'3 5.5
2017-Oct-02 19:30N 37°58' W 000°41'0 0.0
2017-Oct-02 19:01N 37°58' W 000°41'0 0.0
2017-Oct-02 18:30N 37°58' W 000°41'0 0.0
2017-Oct-02 18:00N 37°58' W 000°41'0 0.0
2017-Oct-02 17:30N 37°58' W 000°41'0 0.0
2017-Oct-02 17:00N 37°58' W 000°41'0 0.0
2017-Oct-02 16:31N 37°58' W 000°41'0 0.0
2017-Oct-02 16:01N 37°58' W 000°41'0 0.0
2017-Oct-02 15:30N 37°58' W 000°41'0 0.0
2017-Oct-02 15:01N 37°58' W 000°41'0 0.0
2017-Oct-02 14:30N 37°58' W 000°41'0 0.0
2017-Oct-02 14:01N 37°58' W 000°41'0 0.0
2017-Oct-02 13:30N 37°58' W 000°41'0 0.0
2017-Oct-02 13:01N 37°58' W 000°41'0 0.0
2017-Oct-02 12:30N 37°58' W 000°41'0 0.0
2017-Oct-02 12:01N 37°58' W 000°41'0 0.0
2017-Oct-02 11:30N 37°58' W 000°41'0 0.0
2017-Oct-02 11:01N 37°58' W 000°41'0 0.0
2017-Oct-02 10:31N 37°58' W 000°41'0 0.0
2017-Oct-02 10:00N 37°58' W 000°41'0 0.0
2017-Oct-02 09:30N 37°58' W 000°41'0 0.0
2017-Oct-02 09:01N 37°58' W 000°41'0 0.0
2017-Oct-02 08:30N 37°58' W 000°41'0 0.0
2017-Oct-02 08:00N 37°58' W 000°41'0 0.0
2017-Oct-02 07:30N 37°58' W 000°41'0 0.0
2017-Oct-02 07:00N 37°58' W 000°41'0 0.1
2017-Oct-02 06:30N 37°58' W 000°41'2 5.0
2017-Oct-02 06:01N 37°56' W 000°39'510.6
2017-Oct-02 05:31N 37°52' W 000°35'10 5.3
2017-Oct-02 03:33N 37°44' W 000°27'110.5
2017-Oct-02 03:30N 37°45' W 000°27'0 0.2
2017-Oct-02 02:59N 37°45' W 000°27'1 1.3
2017-Oct-02 02:26N 37°45' W 000°28'0 0.3
2017-Oct-02 01:58N 37°45' W 000°28'5 7.2
2017-Oct-02 01:16N 37°45' W 000°34'2 8.3
2017-Oct-02 01:00N 37°45' W 000°37'1 1.5
2017-Oct-02 00:31N 37°46' W 000°37'1 2.6
2017-Oct-02 00:01N 37°47' W 000°38'0 0.3
2017-Oct-01 23:31N 37°47' W 000°38'0 0.1
2017-Oct-01 23:00N 37°47' W 000°38'0 0.1
2017-Oct-01 22:31N 37°47' W 000°38'4 8.6
2017-Oct-01 22:00N 37°51' W 000°36'5 9.5
2017-Oct-01 21:31N 37°56' W 000°38'4 7.1
2017-Oct-01 21:00N 37°58' W 000°41'  
2017-Sep-29 06:45N 37°58' W 000°41'2 7.1
2017-Sep-29 06:29N 37°58' W 000°39'510.5
2017-Sep-29 06:00N 38°01' W 000°33'5 1.4
2017-Sep-29 02:11N 37°55' W 000°33'210.1
2017-Sep-29 02:00N 37°55' W 000°35'5 9.2
2017-Sep-29 01:28N 37°50' W 000°36'3 6.6
2017-Sep-29 01:00N 37°47' W 000°36'2 4.7
2017-Sep-29 00:30N 37°45' W 000°38'510.2
2017-Sep-29 00:00N 37°48' W 000°43'2 4.6
2017-Sep-28 23:30N 37°49' W 000°45'0 0.0
2017-Sep-28 23:00N 37°49' W 000°45'0 0.0
2017-Sep-28 22:30N 37°49' W 000°45'0 0.0
2017-Sep-28 21:33N 37°49' W 000°45'0 0.0
2017-Sep-28 21:30N 37°49' W 000°45'0 0.0
2017-Sep-28 21:00N 37°49' W 000°45'0 0.0
2017-Sep-28 20:30N 37°49' W 000°45'0 0.0
2017-Sep-28 20:00N 37°49' W 000°45'0 0.0
2017-Sep-28 19:30N 37°49' W 000°45'0 0.0
2017-Sep-28 19:00N 37°49' W 000°45'0 0.0
2017-Sep-28 18:30N 37°49' W 000°45'0 0.0
2017-Sep-28 18:00N 37°49' W 000°45'0 0.0
2017-Sep-28 17:30N 37°49' W 000°45'0 0.0
2017-Sep-28 17:00N 37°49' W 000°45'0 0.0
2017-Sep-28 16:30N 37°49' W 000°45'0 0.0
2017-Sep-28 16:00N 37°49' W 000°45'0 0.0
2017-Sep-28 15:30N 37°49' W 000°45'0 0.0
2017-Sep-28 15:00N 37°49' W 000°45'0 0.0
2017-Sep-28 14:30N 37°49' W 000°45'0 0.0
2017-Sep-28 14:00N 37°49' W 000°45'0 0.0
2017-Sep-28 13:30N 37°49' W 000°45'0 0.0
2017-Sep-28 13:00N 37°49' W 000°45'0 0.0
2017-Sep-28 12:30N 37°49' W 000°45'0 0.0
2017-Sep-28 12:00N 37°49' W 000°45'0 0.0
2017-Sep-28 11:30N 37°49' W 000°45'0 0.0
2017-Sep-28 11:00N 37°49' W 000°45'0 0.0
2017-Sep-28 10:30N 37°49' W 000°45'0 0.0
2017-Sep-28 09:58N 37°49' W 000°45'0 0.1
2017-Sep-28 09:30N 37°49' W 000°45'0 0.0
2017-Sep-28 09:00N 37°49' W 000°45'0 0.0
2017-Sep-28 08:30N 37°49' W 000°45'0 0.0
2017-Sep-28 08:00N 37°49' W 000°45'0 0.0
2017-Sep-28 07:30N 37°49' W 000°45'0 0.0
2017-Sep-28 07:00N 37°49' W 000°45'0 0.0
2017-Sep-28 06:30N 37°49' W 000°45'0 0.0
2017-Sep-28 06:00N 37°49' W 000°45'0 0.0
2017-Sep-28 05:30N 37°49' W 000°45'0 0.0
2017-Sep-28 05:00N 37°49' W 000°45'0 0.0
2017-Sep-28 04:30N 37°49' W 000°45'1 2.6
2017-Sep-28 04:00N 37°48' W 000°44'4 8.5
2017-Sep-28 03:30N 37°46' W 000°39'4 8.9
2017-Sep-28 03:00N 37°42' W 000°40'8 9.1
2017-Sep-28 02:07N 37°35' W 000°45'1 9.7
2017-Sep-28 02:00N 37°34' W 000°46'2 1.3
2017-Sep-28 00:06N 37°33' W 000°49'0 1.6
2017-Sep-27 23:55N 37°32' W 000°48'0 0.4
2017-Sep-27 23:30N 37°33' W 000°49'0 0.5
2017-Sep-27 23:00N 37°33' W 000°48'0 0.5
2017-Sep-27 22:30N 37°33' W 000°48'37 8.4
2017-Sep-27 18:02N 37°24' W 001°34'0 9.4
2017-Sep-27 18:00N 37°24' W 001°34'0 0.0
2017-Sep-27 06:52N 37°24' W 001°35'0 0.2
2017-Sep-27 06:30N 37°24' W 001°35'0 0.1
2017-Sep-27 06:00N 37°24' W 001°35'0 0.0
2017-Sep-27 05:30N 37°24' W 001°35'0 0.0
2017-Sep-27 05:00N 37°24' W 001°35'0 0.0
2017-Sep-27 04:30N 37°24' W 001°35'0 0.0
2017-Sep-27 04:00N 37°24' W 001°35'0 0.0
2017-Sep-27 03:30N 37°24' W 001°35'0 0.0
2017-Sep-27 03:00N 37°24' W 001°35'0 0.0
2017-Sep-27 02:30N 37°24' W 001°35'0 0.0
2017-Sep-27 02:00N 37°24' W 001°35'0 0.0
2017-Sep-27 01:30N 37°24' W 001°35'0 0.0
2017-Sep-27 01:00N 37°24' W 001°35'0 0.0
2017-Sep-27 00:30N 37°24' W 001°35'0 0.5
2017-Sep-27 00:00N 37°24' W 001°34'0 0.2
2017-Sep-26 22:16N 37°24' W 001°34'0 1.4
2017-Sep-26 22:00N 37°24' W 001°35'0 0.0
2017-Sep-26 06:30N 37°24' W 001°35'0 0.0
2017-Sep-26 06:00N 37°24' W 001°35'0 0.1
2017-Sep-26 05:30N 37°24' W 001°35'1 0.0
2017-Sep-24 20:22N 37°23' W 001°35'1 2.7
2017-Sep-24 20:00N 37°24' W 001°35'  

Dump ship's entire track history